Time;durP1;ratioP1;P1;durP2;ratioP2;P2;SDS_P1;SDS_P2;PMS_P1;PMS_P2;Temp;Humidity;BMP_temperature;BMP_pressure;BME280_temperature;BME280_humidity;BME280_pressure;Samples;Min_cycle;Max_cycle;Signal;HPM_P1;HPM_P2
2022/07/26 00:00:11;;;;;;;6.03;5.40;;;19.20;99.90;;;19.25;93.78;100457.91;5047625;28;20449;-69
2022/07/26 00:02:41;;;;;;;17.53;8.97;;;19.10;99.90;;;19.31;91.27;100445.03;5047238;28;20513;-72
2022/07/26 00:05:18;;;;;;;7.23;6.37;;;19.10;99.90;;;19.30;89.51;100449.69;5049439;28;20417;-70
2022/07/26 00:07:47;;;;;;;6.87;5.77;;;19.10;99.90;;;19.27;90.08;100461.19;5044925;28;20773;-70
2022/07/26 00:10:17;;;;;;;7.37;6.67;;;19.10;99.90;;;19.53;90.63;100467.59;5040831;28;20846;-70
2022/07/26 00:12:46;;;;;;;7.53;6.50;;;19.20;99.90;;;19.52;91.64;100447.56;5047793;28;20901;-70
2022/07/26 00:15:15;;;;;;;8.30;6.60;;;19.30;99.90;;;19.41;90.33;100429.38;5050973;28;20432;-71
2022/07/26 00:17:44;;;;;;;6.80;5.63;;;19.20;99.90;;;19.39;88.71;100426.13;5047222;28;20410;-71
2022/07/26 00:20:13;;;;;;;8.10;6.60;;;19.20;99.90;;;19.40;88.60;100433.25;5053381;28;20860;-71
2022/07/26 00:22:44;;;;;;;7.03;6.13;;;19.20;99.90;;;19.27;88.92;100433.75;5050417;28;20966;-70
2022/07/26 00:25:13;;;;;;;8.30;6.27;;;19.10;99.90;;;19.21;89.04;100436.78;5046772;28;20458;-72
2022/07/26 00:27:42;;;;;;;7.03;5.10;;;19.10;99.90;;;19.18;89.06;100449.09;5052834;28;20417;-72
2022/07/26 00:30:14;;;;;;;7.33;6.10;;;19.00;99.90;;;19.30;89.09;100452.44;5050425;28;20456;-71
2022/07/26 00:32:43;;;;;;;13.97;6.40;;;19.10;99.90;;;19.23;89.55;100449.09;5050668;28;20681;-70
2022/07/26 00:35:13;;;;;;;6.97;6.37;;;19.10;99.90;;;19.22;89.32;100444.72;5046206;28;20452;-72
2022/07/26 00:37:44;;;;;;;6.70;5.13;;;19.00;99.90;;;19.33;88.70;100443.66;5044326;28;20474;-72
2022/07/26 00:40:14;;;;;;;7.57;5.80;;;19.10;99.90;;;19.36;88.55;100431.31;5048214;28;20443;-72
2022/07/26 00:42:43;;;;;;;6.40;5.17;;;19.10;99.90;;;19.26;88.55;100447.75;5045125;28;20451;-72
2022/07/26 00:45:14;;;;;;;10.87;5.97;;;19.10;99.90;;;19.20;88.98;100457.06;5053811;28;20409;-70
2022/07/26 00:47:43;;;;;;;11.03;6.13;;;19.00;99.90;;;19.21;90.93;100467.78;5040982;28;20417;-70
2022/07/26 00:50:17;;;;;;;7.47;5.13;;;19.00;99.90;;;19.21;91.01;100465.03;5029809;28;20452;-71
2022/07/26 00:52:50;;;;;;;6.40;5.70;;;19.00;99.90;;;19.21;90.94;100465.03;5033756;28;20486;-69
2022/07/26 00:55:19;;;;;;;6.77;6.07;;;19.00;99.90;;;19.20;90.15;100457.88;5031977;28;20435;-72
2022/07/26 00:57:49;;;;;;;5.90;5.30;;;19.00;99.90;;;19.21;91.56;100456.81;5049715;28;20442;-70
2022/07/26 01:00:26;;;;;;;15.03;6.30;;;19.00;99.90;;;19.18;92.67;100449.09;5045504;28;20442;-70
2022/07/26 01:02:57;;;;;;;6.60;5.90;;;19.00;99.90;;;19.13;91.38;100446.34;5051907;28;20965;-72
2022/07/26 01:05:26;;;;;;;7.67;5.53;;;19.00;99.90;;;19.15;91.98;100452.38;5059591;28;20447;-71
2022/07/26 01:07:58;;;;;;;8.33;5.83;;;19.00;99.90;;;19.14;92.02;100450.72;5069609;28;20476;-71
2022/07/26 01:10:27;;;;;;;9.23;5.80;;;19.00;99.90;;;19.17;92.29;100450.19;5067798;28;21009;-71
2022/07/26 01:12:56;;;;;;;6.27;5.57;;;19.00;99.90;;;19.30;92.29;100457.09;5055336;28;20704;-71
2022/07/26 01:15:26;;;;;;;8.70;6.50;;;19.10;99.90;;;19.38;91.97;100451.91;5058819;28;20421;-71
2022/07/26 01:17:55;;;;;;;6.10;5.23;;;19.10;99.90;;;19.39;92.37;100464.53;5049409;28;20847;-71
2022/07/26 01:20:24;;;;;;;8.97;7.40;;;19.20;99.90;;;19.40;92.37;100459.88;5047913;28;20466;-70
2022/07/26 01:22:55;;;;;;;8.03;7.23;;;19.20;99.90;;;19.50;92.30;100462.66;5048427;28;20433;-71
2022/07/26 01:25:30;;;;;;;7.00;6.30;;;19.20;99.90;;;19.48;92.02;100473.91;5048452;28;20422;-71
2022/07/26 01:28:00;;;;;;;8.03;6.37;;;19.30;99.90;;;19.52;92.73;100485.97;5047408;28;20432;-71
2022/07/26 01:30:29;;;;;;;8.63;7.27;;;19.30;99.90;;;19.39;93.07;100481.00;5050419;28;20500;-70
2022/07/26 01:32:58;;;;;;;11.57;7.53;;;19.20;99.90;;;19.49;93.18;100481.06;5047827;28;20746;-71
2022/07/26 01:35:27;;;;;;;11.63;7.23;;;19.20;99.90;;;19.52;92.94;100483.25;5053404;28;20493;-70
2022/07/26 01:37:58;;;;;;;9.57;7.37;;;19.30;99.90;;;19.43;93.07;100476.59;5048380;28;20812;-71
2022/07/26 01:40:27;;;;;;;9.33;8.00;;;19.30;99.90;;;19.35;93.97;100476.31;5052811;28;20542;-71
2022/07/26 01:42:56;;;;;;;9.37;8.57;;;19.20;99.90;;;19.35;94.37;100485.38;5051980;28;20554;-69
2022/07/26 01:45:25;;;;;;;12.80;8.70;;;19.20;99.90;;;19.40;94.80;100488.13;5051650;28;20443;-70
2022/07/26 01:47:54;;;;;;;8.83;7.20;;;19.10;99.90;;;19.41;94.74;100484.28;5050495;28;20486;-70
2022/07/26 01:50:23;;;;;;;8.03;7.23;;;19.20;99.90;;;19.37;95.08;100480.41;5048203;28;20439;-70
2022/07/26 01:52:52;;;;;;;10.03;7.07;;;19.20;99.90;;;19.32;94.92;100485.88;5031491;28;20562;-70
2022/07/26 01:55:23;;;;;;;9.30;8.33;;;19.10;99.90;;;19.37;95.46;100485.09;5049321;28;20429;-71
2022/07/26 01:57:52;;;;;;;9.63;8.53;;;19.20;99.90;;;19.36;95.80;100481.53;5049565;28;20435;-70
2022/07/26 02:00:21;;;;;;;8.43;7.60;;;19.20;99.90;;;19.35;95.98;100490.03;5051960;28;20439;-71
2022/07/26 02:02:50;;;;;;;10.17;8.70;;;19.20;99.90;;;19.31;95.88;100494.41;5049779;28;20456;-70
2022/07/26 02:05:19;;;;;;;10.10;8.30;;;19.20;99.90;;;19.21;96.20;100489.72;5047537;28;20410;-72
2022/07/26 02:07:48;;;;;;;9.40;8.50;;;19.10;99.90;;;19.26;97.26;100487.00;5051872;28;20489;-71
2022/07/26 02:10:18;;;;;;;10.60;9.47;;;19.10;99.90;;;19.30;97.32;100499.06;5050429;28;20434;-72
2022/07/26 02:12:48;;;;;;;11.40;8.53;;;19.20;99.90;;;19.23;97.91;100498.47;5048835;28;20478;-71
2022/07/26 02:15:17;;;;;;;11.50;9.57;;;19.10;99.90;;;19.22;98.90;100499.56;5049942;28;20468;-70
2022/07/26 02:17:46;;;;;;;13.37;9.70;;;19.10;99.90;;;19.34;98.98;100496.59;5050134;28;20410;-70
2022/07/26 02:20:15;;;;;;;11.10;10.00;;;19.10;99.90;;;19.40;98.02;100504.59;5047464;28;20439;-71
2022/07/26 02:22:44;;;;;;;12.50;9.60;;;19.20;99.90;;;19.35;97.83;100501.84;5048874;28;20525;-70
2022/07/26 02:25:13;;;;;;;11.03;10.00;;;19.20;99.90;;;19.28;97.98;100511.38;5048118;28;20416;-70
2022/07/26 02:27:42;;;;;;;11.07;9.17;;;19.10;99.90;;;19.20;98.24;100499.03;5052993;28;20557;-71
2022/07/26 02:30:13;;;;;;;12.40;11.00;;;19.10;99.90;;;19.03;99.16;100501.97;5049491;28;20444;-69
2022/07/26 02:32:42;;;;;;;12.07;10.57;;;19.00;99.90;;;19.04;98.92;100498.13;5043736;28;20475;-70
2022/07/26 02:35:12;;;;;;;13.67;10.50;;;18.90;99.90;;;19.00;99.30;100498.94;5049340;28;20516;-71
2022/07/26 02:37:41;;;;;;;13.50;10.20;;;18.90;99.90;;;18.82;99.93;100502.16;5046569;28;20446;-69
2022/07/26 02:40:13;;;;;;;10.90;9.20;;;18.80;99.90;;;18.78;100.00;100501.03;5048590;28;20493;-70
2022/07/26 02:42:47;;;;;;;11.47;10.33;;;18.70;99.90;;;18.73;100.00;100495.53;5045605;28;20455;-71
2022/07/26 02:45:17;;;;;;;11.17;9.93;;;18.70;99.90;;;18.74;100.00;100484.25;5048897;28;20489;-71
2022/07/26 02:47:48;;;;;;;11.63;10.43;;;18.60;99.90;;;18.73;100.00;100492.78;5044653;28;20482;-70
2022/07/26 02:50:18;;;;;;;10.33;9.10;;;18.60;99.90;;;18.66;100.00;100490.25;5048325;28;20852;-70
2022/07/26 02:52:48;;;;;;;11.00;9.63;;;18.60;99.90;;;18.56;100.00;100488.28;5046124;28;20446;-71
2022/07/26 02:55:19;;;;;;;13.80;10.50;;;18.50;99.90;;;18.39;100.00;100484.88;5045459;28;20451;-71
2022/07/26 02:57:49;;;;;;;9.77;8.73;;;18.40;99.90;;;18.41;100.00;100487.31;5049157;28;20485;-69
2022/07/26 03:00:26;;;;;;;10.03;8.10;;;18.40;99.90;;;18.43;100.00;100483.25;5054348;28;20453;-70
2022/07/26 03:02:55;;;;;;;10.80;9.00;;;18.40;99.90;;;18.43;100.00;100485.97;5057334;28;20990;-72
2022/07/26 03:05:24;;;;;;;11.03;9.93;;;18.40;99.90;;;18.42;100.00;100489.81;5046177;28;20413;-70
2022/07/26 03:07:53;;;;;;;11.27;9.60;;;18.40;99.90;;;18.34;100.00;100479.34;5049369;28;20835;-72
2022/07/26 03:10:22;;;;;;;10.20;9.20;;;18.30;99.90;;;18.37;100.00;100489.78;5053678;28;20442;-70
2022/07/26 03:12:51;;;;;;;9.30;8.43;;;18.30;99.90;;;18.31;100.00;100488.06;5050545;28;20536;-70
2022/07/26 03:15:21;;;;;;;10.30;8.63;;;18.30;99.90;;;18.24;100.00;100484.75;5056814;28;20444;-70
2022/07/26 03:17:50;;;;;;;12.80;9.00;;;18.20;99.90;;;18.20;100.00;100500.06;5054222;28;20497;-72
2022/07/26 03:20:19;;;;;;;12.83;9.03;;;18.20;99.90;;;18.26;100.00;100488.03;5048712;28;20450;-69
2022/07/26 03:22:48;;;;;;;11.23;9.70;;;18.20;99.90;;;18.25;100.00;100494.59;5046736;28;20470;-72
2022/07/26 03:25:17;;;;;;;12.00;9.47;;;18.10;99.90;;;18.26;100.00;100488.03;5055045;28;20965;-71
2022/07/26 03:27:46;;;;;;;10.27;9.00;;;18.20;99.90;;;18.24;100.00;100492.97;5050988;28;20418;-72
2022/07/26 03:30:15;;;;;;;14.90;9.63;;;18.10;99.90;;;18.25;100.00;100497.34;5048642;28;20796;-70
2022/07/26 03:32:54;;;;;;;10.33;7.63;;;18.20;99.90;;;18.26;100.00;100493.50;5059524;28;20486;-72
2022/07/26 03:35:24;;;;;;;12.70;8.80;;;18.10;99.90;;;18.30;100.00;100502.06;5051154;28;20488;-71
2022/07/26 03:37:53;;;;;;;11.67;9.57;;;18.20;99.90;;;18.34;100.00;100490.31;5052023;28;20466;-72
2022/07/26 03:40:22;;;;;;;10.23;8.87;;;18.20;99.90;;;18.32;100.00;100494.38;5055767;28;20765;-71
2022/07/26 03:42:51;;;;;;;8.77;6.87;;;18.20;99.90;;;18.33;100.00;100499.59;5049907;28;20451;-70
2022/07/26 03:45:20;;;;;;;9.37;8.37;;;18.10;99.90;;;18.34;99.13;100495.78;5044374;28;20431;-71
2022/07/26 03:47:49;;;;;;;8.93;7.60;;;18.20;99.90;;;18.35;96.94;100497.41;5048731;28;20987;-71
2022/07/26 03:50:19;;;;;;;7.67;6.87;;;18.10;99.90;;;18.31;96.48;100501.75;5044135;28;20839;-71
2022/07/26 03:52:48;;;;;;;9.30;7.83;;;18.10;99.90;;;18.38;96.33;100502.38;5048783;28;20472;-71
2022/07/26 03:58:04;;;;;;;8.30;6.60;;;18.20;99.90;;;18.60;92.38;100508.59;5051945;28;20419;-70
2022/07/26 04:00:33;;;;;;;8.33;7.03;;;18.30;99.90;;;18.58;92.57;100508.03;5052964;28;21014;-69
2022/07/26 04:03:02;;;;;;;13.33;7.47;;;18.30;99.90;;;18.60;92.16;100505.84;5052478;28;20455;-71
2022/07/26 04:05:32;;;;;;;8.80;6.50;;;18.30;99.90;;;18.78;91.62;100506.50;5047671;28;20424;-71
2022/07/26 04:08:04;;;;;;;7.10;6.47;;;18.40;99.90;;;18.92;88.84;100518.66;5027900;28;20482;-72
2022/07/26 04:10:33;;;;;;;10.70;6.30;;;18.50;99.90;;;19.01;89.00;100517.06;5030180;28;20418;-70
2022/07/26 04:13:02;;;;;;;7.80;6.70;;;18.50;99.90;;;19.05;87.86;100509.94;5048352;28;20520;-71
2022/07/26 04:15:31;;;;;;;9.97;6.80;;;18.60;99.90;;;19.24;87.45;100511.13;5031811;28;20417;-71
2022/07/26 04:18:00;;;;;;;10.40;6.63;;;18.60;99.90;;;19.29;82.68;100508.38;5032428;28;20811;-70
2022/07/26 04:20:29;;;;;;;5.73;4.87;;;18.70;99.90;;;19.28;84.77;100511.38;5063363;22;20412;-71
2022/07/26 04:22:59;;;;;;;6.23;4.73;;;18.70;99.90;;;19.24;84.02;100505.63;5063089;28;20435;-71
2022/07/26 04:25:28;;;;;;;5.90;5.30;;;18.70;99.90;;;19.42;83.44;100507.88;5065626;28;20927;-72
2022/07/26 04:28:08;;;;;;;8.30;5.60;;;18.80;99.90;;;19.61;80.71;100512.88;5065672;28;20906;-72
2022/07/26 04:30:38;;;;;;;8.57;5.17;;;18.90;99.90;;;19.62;79.79;100518.13;5064290;28;20471;-72
2022/07/26 04:33:08;;;;;;;7.90;4.53;;;18.90;99.90;;;19.62;79.53;100511.81;5045882;28;20500;-71
2022/07/26 04:35:37;;;;;;;7.70;4.17;;;19.00;99.90;;;19.55;79.89;100512.06;5069581;28;20524;-71
2022/07/26 04:38:08;;;;;;;6.23;4.30;;;19.00;99.90;;;19.54;79.30;100510.41;5070932;28;20533;-71
2022/07/26 04:40:37;;;;;;;8.33;5.00;;;18.90;99.90;;;19.68;78.46;100516.22;5049546;28;20496;-71
2022/07/26 04:43:09;;;;;;;6.03;4.40;;;19.00;99.90;;;19.94;78.83;100512.44;5065920;28;20544;-72
2022/07/26 04:45:44;;;;;;;6.67;3.80;;;19.10;99.90;;;20.28;77.28;100504.47;5071729;28;20999;-73
2022/07/26 04:48:14;;;;;;;5.70;3.80;;;19.20;99.90;;;20.61;73.22;100509.41;5073453;28;20450;-71
2022/07/26 04:50:44;;;;;;;9.03;5.10;;;19.40;99.90;;;20.76;72.04;100505.81;5054129;28;20417;-71
2022/07/26 04:53:14;;;;;;;7.30;4.17;;;19.60;99.90;;;21.11;71.14;100507.59;5056077;28;20444;-71
2022/07/26 04:55:44;;;;;;;5.63;4.00;;;19.70;99.90;;;21.46;70.62;100514.91;5069117;28;20887;-71
2022/07/26 04:58:13;;;;;;;3.90;3.50;;;20.00;99.90;;;21.82;69.35;100516.34;5065931;28;20776;-70
2022/07/26 05:00:42;;;;;;;6.70;4.83;;;20.10;99.90;;;22.12;68.83;100517.28;5062539;28;20872;-71
2022/07/26 05:03:31;;;;;;;5.33;4.50;;;20.30;99.90;;;22.28;67.87;100521.53;5062494;28;20549;-72
2022/07/26 05:06:00;;;;;;;7.47;4.10;;;20.70;1.00;;;22.36;67.05;100524.50;5069162;28;20492;-72
2022/07/26 05:08:30;;;;;;;4.37;3.97;;;21.00;1.00;;;22.88;64.88;100523.75;5063649;28;20446;-72
2022/07/26 05:10:59;;;;;;;7.17;4.33;;;21.30;99.90;;;23.14;62.76;100529.78;5068698;28;20466;-72
2022/07/26 05:13:28;;;;;;;6.67;4.70;;;21.50;99.90;;;23.13;63.59;100535.63;5067880;28;20480;-71
2022/07/26 05:15:59;;;;;;;6.27;4.40;;;21.80;99.90;;;22.86;63.08;100531.47;5065778;28;20982;-73
2022/07/26 05:18:30;;;;;;;8.17;4.30;;;21.80;99.90;;;22.74;63.75;100533.84;5070620;28;20956;-71
2022/07/26 05:21:18;;;;;;;8.47;5.07;;;21.70;99.90;;;22.76;63.20;100537.09;5063977;28;20811;-72
2022/07/26 05:23:48;;;;;;;8.33;4.27;;;21.50;99.90;;;22.50;63.99;100541.22;5064346;28;20756;-72
2022/07/26 05:26:17;;;;;;;17.93;6.13;;;21.60;99.90;;;22.74;63.16;100536.59;5070197;28;20519;-72
2022/07/26 05:28:46;;;;;;;6.63;4.47;;;21.60;99.90;;;23.41;60.84;100534.72;5060680;28;20435;-71
2022/07/26 05:31:16;;;;;;;7.27;4.83;;;21.70;99.90;;;24.40;57.89;100546.53;5051860;28;20443;-72
2022/07/26 05:33:45;;;;;;;7.93;4.57;;;22.20;99.90;;;24.20;57.67;100549.66;5059885;28;20446;-71
2022/07/26 05:36:14;;;;;;;8.47;4.07;;;22.50;87.90;;;23.27;59.41;100550.34;5063904;28;20452;-70
2022/07/26 05:38:43;;;;;;;6.70;3.30;;;22.30;92.00;;;22.06;62.38;100558.66;5060668;28;20447;-70
2022/07/26 05:41:13;;;;;;;5.10;3.30;;;21.90;99.90;;;22.03;64.66;100559.19;5062104;28;20434;-72
2022/07/26 05:43:42;;;;;;;4.07;3.67;;;21.60;1.00;;;21.87;65.80;100560.41;5063868;28;20508;-71
2022/07/26 05:46:11;;;;;;;5.37;4.73;;;21.30;60.70;;;21.73;65.60;100564.88;5066529;28;20932;-73
2022/07/26 05:48:40;;;;;;;4.53;4.13;;;21.30;99.90;;;21.62;65.54;100563.28;5065637;28;20442;-70
2022/07/26 05:51:13;;;;;;;5.00;3.93;;;21.10;99.90;;;21.36;67.51;100564.50;5063286;28;20477;-70
2022/07/26 05:53:42;;;;;;;5.67;4.50;;;20.90;99.90;;;21.36;66.11;100559.00;5063507;28;20854;-73
2022/07/26 05:56:12;;;;;;;8.40;5.10;;;20.80;99.90;;;21.42;66.75;100564.19;5063479;28;20580;-71
2022/07/26 05:58:41;;;;;;;4.40;3.30;;;20.90;99.90;;;21.39;65.83;100566.72;5047551;28;20718;-71
2022/07/26 06:01:10;;;;;;;7.97;4.40;;;20.80;99.90;;;21.49;66.41;100569.41;5061419;28;20792;-72
2022/07/26 06:03:39;;;;;;;6.43;3.23;;;20.90;99.90;;;21.77;64.89;100570.66;5064478;28;20990;-71
2022/07/26 06:06:08;;;;;;;8.03;3.47;;;21.00;99.90;;;22.10;64.67;100569.91;5065655;28;20438;-73
2022/07/26 06:08:37;;;;;;;5.70;2.93;;;21.30;99.90;;;22.19;64.06;100567.38;5064921;28;20446;-72
2022/07/26 06:11:07;;;;;;;6.30;3.40;;;21.40;99.90;;;22.14;62.88;100568.22;5066890;28;20474;-72
2022/07/26 06:13:37;;;;;;;3.60;3.00;;;21.50;99.10;;;22.04;62.96;100573.81;5064410;28;20882;-72
2022/07/26 06:16:07;;;;;;;7.67;3.87;;;21.50;97.80;;;22.22;61.73;100578.63;5067833;28;20571;-72
2022/07/26 06:18:36;;;;;;;8.33;4.67;;;21.60;96.30;;;22.38;62.59;100576.59;5070609;28;20457;-73
2022/07/26 06:21:05;;;;;;;7.50;3.57;;;21.70;98.10;;;22.14;62.12;100581.19;5068579;28;20496;-72
2022/07/26 06:23:34;;;;;;;4.20;3.30;;;21.60;95.20;;;22.08;61.84;100578.44;5064708;28;20471;-73
2022/07/26 06:26:05;;;;;;;4.57;2.50;;;21.60;94.20;;;22.15;62.34;100577.31;5064627;28;20434;-72
2022/07/26 06:28:35;;;;;;;5.07;3.00;;;21.60;94.80;;;22.17;62.24;100572.34;5067014;28;20435;-73
2022/07/26 06:31:06;;;;;;;3.80;2.37;;;21.60;96.10;;;21.96;61.90;100583.50;5058769;28;20963;-72
2022/07/26 06:33:35;;;;;;;7.10;3.20;;;21.50;93.90;;;21.82;62.17;100584.38;5062382;28;20936;-72
2022/07/26 06:36:04;;;;;;;5.60;2.73;;;21.40;93.20;;;21.90;62.66;100584.59;5060840;28;20477;-72
2022/07/26 06:38:33;;;;;;;5.30;2.63;;;21.40;94.80;;;21.48;62.31;100584.28;5054763;28;20497;-72
2022/07/26 06:41:02;;;;;;;9.70;2.57;;;21.20;93.10;;;21.27;63.02;100588.19;5064240;28;20442;-73
2022/07/26 06:43:31;;;;;;;9.43;3.23;;;21.10;93.50;;;21.37;62.74;100589.00;5063822;28;20460;-73
2022/07/26 06:46:00;;;;;;;5.77;2.00;;;21.00;94.30;;;21.35;63.34;100590.41;5064494;28;20832;-73
2022/07/26 06:48:30;;;;;;;5.13;2.77;;;20.90;95.90;;;21.59;63.61;100591.41;5067501;28;20453;-71
2022/07/26 06:50:59;;;;;;;3.00;2.13;;;21.00;97.80;;;21.71;62.35;100585.53;5062340;28;20450;-71
2022/07/26 06:53:28;;;;;;;5.43;2.43;;;21.20;94.80;;;21.67;61.80;100590.81;5064950;28;20503;-71
2022/07/26 06:55:57;;;;;;;5.57;2.77;;;21.30;93.30;;;21.78;61.64;100586.91;5063230;28;20515;-72
2022/07/26 06:58:26;;;;;;;10.60;2.87;;;21.40;92.90;;;21.82;61.99;100590.72;5069251;28;20442;-72
2022/07/26 07:00:55;;;;;;;2.70;2.20;;;21.40;93.70;;;21.83;60.91;100592.38;5066863;28;20871;-73
2022/07/26 07:03:24;;;;;;;3.50;2.30;;;21.40;91.60;;;21.96;60.51;100586.25;5066070;28;20458;-71
2022/07/26 07:05:54;;;;;;;2.70;2.17;;;21.50;90.40;;;21.75;60.57;100600.38;5066419;28;20435;-72
2022/07/26 07:08:23;;;;;;;4.70;3.03;;;21.50;88.80;;;21.73;61.60;100597.09;5063942;28;20847;-71
2022/07/26 07:10:54;;;;;;;4.67;2.30;;;21.40;90.60;;;21.85;61.54;100601.16;5063348;28;20425;-74
2022/07/26 07:13:23;;;;;;;8.20;2.70;;;21.50;90.90;;;21.87;61.53;100604.47;5058934;28;20959;-73
2022/07/26 07:15:52;;;;;;;3.33;2.30;;;21.50;90.70;;;22.06;61.25;100611.00;5061396;28;20475;-73
2022/07/26 07:18:22;;;;;;;4.90;3.10;;;21.60;91.00;;;22.18;61.12;100609.81;5065980;28;20492;-73
2022/07/26 07:20:50;;;;;;;2.43;1.67;;;21.70;90.20;;;21.77;60.06;100621.03;5065182;28;21520;-72
2022/07/26 07:23:22;;;;;;;4.33;2.47;;;21.60;80.90;;;22.06;60.27;100619.25;5054084;28;20493;-71
2022/07/26 07:25:51;;;;;;;3.73;2.10;;;21.60;85.60;;;21.89;59.46;100607.75;5059736;28;20438;-71
2022/07/26 07:28:21;;;;;;;3.40;2.50;;;21.60;80.50;;;21.84;59.62;100610.53;5063242;28;20421;-72
2022/07/26 07:30:51;;;;;;;3.47;2.50;;;21.60;78.00;;;21.98;59.51;100606.06;5063509;28;20504;-71
2022/07/26 07:33:20;;;;;;;3.97;2.30;;;21.60;78.60;;;22.20;58.62;100613.13;5053020;28;20524;-71
2022/07/26 07:35:52;;;;;;;5.20;3.30;;;21.80;75.00;;;22.80;58.16;100611.84;5058338;28;20510;-73
2022/07/26 07:38:23;;;;;;;4.17;2.07;;;22.10;77.50;;;23.13;56.38;100610.13;5060309;28;20474;-72
2022/07/26 07:40:52;;;;;;;6.10;2.40;;;22.50;68.00;;;22.75;57.11;100614.66;5062123;28;20438;-72
2022/07/26 07:43:21;;;;;;;3.00;2.20;;;22.30;64.40;;;22.72;57.20;100615.22;5064812;28;20490;-73
2022/07/26 07:45:50;;;;;;;7.93;2.23;;;22.30;64.10;;;22.78;56.56;100614.88;5062108;28;20435;-73
2022/07/26 07:48:19;;;;;;;9.50;2.20;;;22.30;60.30;;;23.11;55.27;100620.63;5061777;28;20438;-73
2022/07/26 07:50:48;;;;;;;4.73;2.83;;;22.60;58.00;;;23.21;55.11;100624.13;5064178;28;20461;-72
2022/07/26 07:53:17;;;;;;;7.27;2.03;;;22.80;55.50;;;23.72;54.39;100607.78;5062644;28;21105;-71
2022/07/26 07:55:49;;;;;;;3.00;2.07;;;23.10;54.10;;;24.37;53.16;100612.69;5062427;28;20835;-73
2022/07/26 07:58:23;;;;;;;4.03;1.90;;;23.40;51.70;;;24.18;52.38;100613.53;5064034;28;20438;-72
2022/07/26 08:00:55;;;;;;;10.43;2.50;;;23.60;44.70;;;24.09;52.02;100606.19;5066045;28;20521;-73
2022/07/26 08:03:24;;;;;;;2.80;1.93;;;23.50;42.50;;;24.15;53.14;100602.22;5060456;28;20488;-73
2022/07/26 08:06:09;;;;;;;2.73;2.23;;;23.50;45.10;;;23.99;52.55;100609.91;5062585;28;20517;-72
2022/07/26 08:08:39;;;;;;;9.57;3.50;;;23.60;41.70;;;23.75;53.72;100618.25;5062120;28;20449;-71
2022/07/26 08:11:12;;;;;;;8.03;2.07;;;23.30;43.20;;;23.78;53.92;100611.31;5065384;28;20940;-73
2022/07/26 08:13:41;;;;;;;6.33;2.80;;;23.20;44.50;;;23.74;53.97;100611.09;5066389;28;20895;-73
2022/07/26 08:16:15;;;;;;;3.33;2.03;;;23.30;44.00;;;23.47;54.28;100610.88;5063519;28;20563;-73
2022/07/26 08:18:46;;;;;;;4.63;1.93;;;23.00;42.80;;;23.17;55.27;100605.66;5070565;28;20434;-72
2022/07/26 08:21:26;;;;;;;8.57;2.60;;;22.90;45.80;;;22.94;56.31;100619.16;5076114;28;20481;-72
2022/07/26 08:23:57;;;;;;;6.90;4.20;;;22.70;49.20;;;22.89;56.04;100610.94;5068703;28;20468;-74
2022/07/26 08:26:28;;;;;;;4.60;2.40;;;22.60;48.70;;;22.63;56.81;100606.72;5070164;28;20438;-72
2022/07/26 08:28:56;;;;;;;2.50;1.93;;;22.40;49.20;;;22.61;56.53;100608.91;5060416;28;21080;-73
2022/07/26 08:31:28;;;;;;;4.17;2.30;;;22.30;49.70;;;22.73;55.77;100612.19;5060133;28;20451;-73
2022/07/26 08:33:57;;;;;;;5.77;2.47;;;22.40;48.90;;;23.27;55.30;100617.44;5069851;28;20452;-74
2022/07/26 08:36:26;;;;;;;5.43;2.57;;;22.70;49.30;;;23.44;54.17;100611.41;5059360;28;20501;-71
2022/07/26 08:39:00;;;;;;;6.70;2.07;;;22.90;45.70;;;23.23;54.01;100621.91;5067885;28;20470;-73
2022/07/26 08:41:31;;;;;;;3.53;1.63;;;22.90;42.80;;;22.94;54.02;100624.69;5052477;28;20858;-72
2022/07/26 08:44:09;;;;;;;5.73;2.27;;;22.70;41.60;;;22.88;54.63;100613.97;5073749;28;20842;-71
2022/07/26 08:46:40;;;;;;;3.47;1.90;;;22.60;43.10;;;22.76;55.40;100622.63;5069484;28;20473;-72
2022/07/26 08:49:12;;;;;;;3.43;2.30;;;22.40;45.20;;;22.99;55.05;100631.25;5067759;28;20431;-71
2022/07/26 08:51:44;;;;;;;9.40;3.10;;;22.50;45.70;;;23.07;55.52;100634.19;5061551;28;20466;-72
2022/07/26 08:54:15;;;;;;;6.13;2.37;;;22.60;48.50;;;23.07;55.04;100634.19;5076982;28;20468;-72
2022/07/26 08:56:53;;;;;;;4.40;2.20;;;22.60;46.80;;;23.08;54.61;100649.66;5071856;28;20478;-72
2022/07/26 08:59:22;;;;;;;5.13;2.20;;;22.60;45.20;;;22.82;55.20;100642.72;5071072;28;20559;-72
2022/07/26 09:01:59;;;;;;;3.50;1.80;;;22.50;45.60;;;23.15;54.67;100636.31;5073302;28;20790;-73
2022/07/26 09:04:31;;;;;;;5.53;1.77;;;22.60;45.00;;;23.95;53.14;100641.22;5063526;28;20434;-71
2022/07/26 09:07:06;;;;;;;2.97;1.70;;;23.20;43.30;;;24.47;51.61;100643.78;5065500;28;20430;-72
2022/07/26 09:09:39;;;;;;;4.63;1.80;;;23.70;39.60;;;24.99;49.10;100639.06;5063697;28;20487;-72
2022/07/26 09:12:18;;;;;;;4.40;2.30;;;24.10;32.70;;;25.34;48.83;100635.66;5067951;28;20466;-73
2022/07/26 09:14:48;;;;;;;2.83;1.77;;;24.50;31.30;;;25.12;48.57;100635.53;5050014;28;20438;-72
2022/07/26 09:17:22;;;;;;;5.30;1.87;;;24.50;28.70;;;24.70;48.63;100630.97;5063086;28;20479;-72
2022/07/26 09:20:08;;;;;;;4.37;2.40;;;24.30;26.30;;;24.65;49.26;100642.09;5060943;28;20937;-72
2022/07/26 09:22:38;;;;;;;2.90;1.20;;;24.20;27.40;;;24.64;49.87;100646.81;5062593;28;20473;-72
2022/07/26 09:25:22;;;;;;;3.77;2.13;;;24.30;27.20;;;24.73;49.21;100641.44;5065624;28;20461;-72
2022/07/26 09:27:53;;;;;;;3.23;1.80;;;24.30;26.90;;;24.43;48.93;100641.94;5061916;28;20441;-72
2022/07/26 09:30:22;;;;;;;5.97;1.40;;;24.10;25.20;;;24.43;49.62;100645.50;5062736;28;20435;-71
2022/07/26 09:33:03;;;;;;;3.33;1.60;;;24.10;26.00;;;24.84;49.07;100645.66;5062351;28;20473;-71
2022/07/26 09:35:34;;;;;;;8.53;1.93;;;24.30;26.90;;;24.73;49.34;100637.84;5066330;28;20438;-72
2022/07/26 09:38:20;;;;;;;2.50;1.60;;;24.30;26.20;;;25.16;48.83;100647.63;5065347;28;20469;-70
2022/07/26 09:40:49;;;;;;;3.30;1.83;;;24.60;26.10;;;24.79;48.43;100639.38;5067137;28;20419;-72
2022/07/26 09:43:21;;;;;;;2.10;1.70;;;24.50;24.00;;;25.00;47.15;100641.53;5060986;28;20466;-72
2022/07/26 09:46:05;;;;;;;2.30;1.80;;;24.60;22.20;;;25.42;46.62;100637.69;5066593;28;20449;-71
2022/07/26 09:48:38;;;;;;;3.27;2.27;;;24.90;21.50;;;25.76;45.73;100636.47;5062559;28;20904;-72
2022/07/26 09:51:38;;;;;;;5.50;1.50;;;25.30;19.70;;;26.67;44.73;100634.44;5067565;28;20529;-72
2022/07/26 09:54:08;;;;;;;6.20;2.90;;;25.80;19.60;;;25.98;45.54;100647.66;5067084;28;20495;-72
2022/07/26 09:56:47;;;;;;;3.33;2.53;;;25.60;18.10;;;25.39;46.22;100649.41;5063433;28;20458;-72
2022/07/26 09:59:21;;;;;;;4.70;2.27;;;25.10;17.70;;;25.45;46.34;100648.19;5063720;28;20442;-73
2022/07/26 10:01:52;;;;;;;3.50;2.23;;;25.10;18.10;;;25.40;46.01;100648.28;5068408;28;20430;-72
2022/07/26 10:04:22;;;;;;;3.10;1.60;;;24.90;18.00;;;25.67;45.53;100653.00;5069840;28;21046;-72
2022/07/26 10:06:52;;;;;;;4.37;2.43;;;25.10;17.80;;;25.40;46.09;100647.44;5065191;28;20847;-72
2022/07/26 10:09:22;;;;;;;3.57;1.90;;;25.10;17.80;;;25.23;47.01;100645.25;5067117;28;20447;-71
2022/07/26 10:11:59;;;;;;;2.80;1.80;;;24.90;18.60;;;25.48;45.91;100650.31;5067641;28;20820;-72
2022/07/26 10:14:43;;;;;;;4.33;2.63;;;25.10;17.40;;;24.63;48.02;100647.97;5062438;28;20838;-73
2022/07/26 10:17:45;;;;;;;8.10;2.13;;;24.50;18.50;;;24.64;48.26;100649.59;5057693;28;20577;-72
2022/07/26 10:20:32;;;;;;;2.80;2.00;;;24.30;19.70;;;24.48;48.76;100644.63;5066527;28;20447;-73
2022/07/26 10:23:43;;;;;;;2.80;1.50;;;24.20;19.60;;;24.67;47.97;100645.41;5026035;28;20419;-73
2022/07/26 10:26:39;;;;;;;3.57;2.00;;;24.30;20.70;;;24.67;48.29;100646.22;4999604;28;20488;-75
2022/07/26 10:29:25;;;;;;;2.40;1.70;;;24.30;20.00;;;24.30;48.86;100654.56;5006212;28;20452;-74